| Date | Time | Temp. (oF) | Dew Point (oF) | Rel. Hum. (%) | Press. (in.) | Wind Dir. | Wind Speed (mph) | Hourly Rainfall (in.) |
|
|---|---|---|---|---|---|---|---|---|---|
| 1 | 09/24 | 00:00 | 53 | 50 | 92 | 30.41 | S | 0 | 0.00 |
| 2 | 09/23 | 23:00 | 55 | 52 | 90 | 30.40 | E | 0 | 0.00 |
| 3 | 09/23 | 22:00 | 57 | 52 | 84 | 30.39 | E | 0 | 0.00 |
| 4 | 09/23 | 21:00 | 60 | 51 | 74 | 30.39 | E | 0 | 0.00 |
| 5 | 09/23 | 20:00 | 63 | 49 | 62 | 30.38 | E | 0 | 0.00 |
| 6 | 09/23 | 19:00 | 67 | 48 | 52 | 30.37 | E | 0 | 0.00 |
| 7 | 09/23 | 18:00 | 71 | 48 | 45 | 30.36 | NE | 3 | 0.00 |
| 8 | 09/23 | 17:00 | 73 | 49 | 43 | 30.36 | N | 4 | 0.00 |
| 9 | 09/23 | 16:00 | 73 | 49 | 43 | 30.37 | NE | 13 | 0.00 |
| 10 | 09/23 | 15:00 | 73 | 53 | 51 | 30.40 | ENE | 4 | 0.00 |
| 11 | 09/23 | 14:00 | 71 | 52 | 52 | 30.42 | NNE | 4 | 0.00 |
| 12 | 09/23 | 13:00 | 69 | 52 | 56 | 30.44 | N | 6 | 0.00 |
| 13 | 09/23 | 12:00 | 68 | 56 | 66 | 30.46 | NE | 4 | 0.00 |
| 14 | 09/23 | 11:00 | 65 | 55 | 72 | 30.47 | ENE | 8 | 0.00 |
| 15 | 09/23 | 10:00 | 63 | 58 | 84 | 30.47 | ENE | 10 | 0.00 |
| 16 | 09/23 | 09:00 | 60 | 57 | 92 | 30.46 | NNE | 4 | 0.00 |
| 17 | 09/23 | 08:00 | 56 | 55 | 100 | 30.45 | N | 3 | 0.00 |
| 18 | 09/23 | 07:00 | 55 | 54 | 100 | 30.44 | NNE | 2 | 0.00 |
| 19 | 09/23 | 06:00 | 55 | 54 | 100 | 30.43 | NE | 0 | 0.00 |
| 20 | 09/23 | 05:00 | 55 | 54 | 100 | 30.41 | ENE | 0 | 0.00 |
| 21 | 09/23 | 04:00 | 57 | 57 | 100 | 30.41 | NE | 0 | 0.00 |
| 22 | 09/23 | 03:00 | 57 | 56 | 98 | 30.41 | NE | 0 | 0.00 |
| 23 | 09/23 | 02:00 | 58 | 57 | 97 | 30.40 | NE | 0 | 0.00 |
| 24 | 09/23 | 01:00 | 59 | 57 | 95 | 30.39 | NE | 0 | 0.00 |